sensor_id;sensor_type;location;lat;lon;timestamp;P1;durP1;ratioP1;P2;durP2;ratioP2
36585;SDS011;22591;48.314;11.562;2023-02-15T00:01:43;217.32;;;40.05;;
36585;SDS011;22591;48.314;11.562;2023-02-15T00:04:08;230.35;;;38.90;;
36585;SDS011;22591;48.314;11.562;2023-02-15T00:06:37;83.88;;;28.05;;
36585;SDS011;22591;48.314;11.562;2023-02-15T00:09:02;139.48;;;33.55;;
36585;SDS011;22591;48.314;11.562;2023-02-15T00:11:28;212.57;;;36.42;;
36585;SDS011;22591;48.314;11.562;2023-02-15T00:14:10;99.70;;;29.02;;
36585;SDS011;22591;48.314;11.562;2023-02-15T00:16:36;157.53;;;31.03;;
36585;SDS011;22591;48.314;11.562;2023-02-15T00:19:03;213.30;;;35.80;;
36585;SDS011;22591;48.314;11.562;2023-02-15T00:21:30;127.88;;;30.25;;
36585;SDS011;22591;48.314;11.562;2023-02-15T00:23:56;233.15;;;37.13;;
36585;SDS011;22591;48.314;11.562;2023-02-15T00:26:23;170.35;;;34.75;;
36585;SDS011;22591;48.314;11.562;2023-02-15T00:28:49;153.85;;;34.17;;
36585;SDS011;22591;48.314;11.562;2023-02-15T00:31:15;205.40;;;37.20;;
36585;SDS011;22591;48.314;11.562;2023-02-15T00:33:40;134.82;;;31.98;;
36585;SDS011;22591;48.314;11.562;2023-02-15T00:36:07;297.55;;;38.38;;
36585;SDS011;22591;48.314;11.562;2023-02-15T00:38:34;161.80;;;33.90;;
36585;SDS011;22591;48.314;11.562;2023-02-15T00:41:01;221.68;;;38.17;;
36585;SDS011;22591;48.314;11.562;2023-02-15T00:43:28;182.45;;;33.85;;
36585;SDS011;22591;48.314;11.562;2023-02-15T00:45:55;183.75;;;34.92;;
36585;SDS011;22591;48.314;11.562;2023-02-15T00:48:21;124.38;;;30.05;;
36585;SDS011;22591;48.314;11.562;2023-02-15T00:50:54;263.98;;;41.85;;
36585;SDS011;22591;48.314;11.562;2023-02-15T00:53:23;185.93;;;36.60;;
36585;SDS011;22591;48.314;11.562;2023-02-15T00:55:50;159.85;;;31.45;;
36585;SDS011;22591;48.314;11.562;2023-02-15T00:58:15;164.50;;;35.15;;
36585;SDS011;22591;48.314;11.562;2023-02-15T01:00:42;205.95;;;33.67;;
36585;SDS011;22591;48.314;11.562;2023-02-15T01:03:09;243.63;;;38.35;;
36585;SDS011;22591;48.314;11.562;2023-02-15T01:05:35;153.82;;;34.22;;
36585;SDS011;22591;48.314;11.562;2023-02-15T01:08:01;96.57;;;28.02;;
36585;SDS011;22591;48.314;11.562;2023-02-15T01:10:27;175.63;;;33.45;;
36585;SDS011;22591;48.314;11.562;2023-02-15T01:12:53;93.45;;;29.75;;
36585;SDS011;22591;48.314;11.562;2023-02-15T01:15:20;85.45;;;29.40;;
36585;SDS011;22591;48.314;11.562;2023-02-15T01:17:46;168.50;;;35.58;;
36585;SDS011;22591;48.314;11.562;2023-02-15T01:20:17;199.45;;;34.15;;
36585;SDS011;22591;48.314;11.562;2023-02-15T01:22:43;152.70;;;31.80;;
36585;SDS011;22591;48.314;11.562;2023-02-15T01:25:09;197.40;;;31.90;;
36585;SDS011;22591;48.314;11.562;2023-02-15T01:27:34;276.00;;;38.40;;
36585;SDS011;22591;48.314;11.562;2023-02-15T01:30:00;225.57;;;33.20;;
36585;SDS011;22591;48.314;11.562;2023-02-15T01:32:26;231.02;;;32.50;;
36585;SDS011;22591;48.314;11.562;2023-02-15T01:34:51;163.88;;;30.65;;
36585;SDS011;22591;48.314;11.562;2023-02-15T01:37:17;130.70;;;28.85;;
36585;SDS011;22591;48.314;11.562;2023-02-15T01:39:43;120.55;;;33.05;;
36585;SDS011;22591;48.314;11.562;2023-02-15T01:42:10;141.80;;;32.70;;
36585;SDS011;22591;48.314;11.562;2023-02-15T01:44:49;132.55;;;29.38;;
36585;SDS011;22591;48.314;11.562;2023-02-15T01:47:18;275.33;;;41.63;;
36585;SDS011;22591;48.314;11.562;2023-02-15T01:49:50;236.82;;;40.10;;
36585;SDS011;22591;48.314;11.562;2023-02-15T01:52:25;257.42;;;41.03;;
36585;SDS011;22591;48.314;11.562;2023-02-15T01:54:51;333.75;;;49.33;;
36585;SDS011;22591;48.314;11.562;2023-02-15T01:57:18;194.70;;;34.20;;
36585;SDS011;22591;48.314;11.562;2023-02-15T01:59:48;108.20;;;29.98;;
36585;SDS011;22591;48.314;11.562;2023-02-15T02:02:20;229.48;;;41.63;;
36585;SDS011;22591;48.314;11.562;2023-02-15T02:04:50;271.50;;;44.38;;
36585;SDS011;22591;48.314;11.562;2023-02-15T02:07:19;272.85;;;44.40;;
36585;SDS011;22591;48.314;11.562;2023-02-15T02:09:46;135.65;;;35.08;;
36585;SDS011;22591;48.314;11.562;2023-02-15T02:12:12;249.32;;;39.50;;
36585;SDS011;22591;48.314;11.562;2023-02-15T02:14:39;377.08;;;58.03;;
36585;SDS011;22591;48.314;11.562;2023-02-15T02:17:07;357.58;;;58.33;;
36585;SDS011;22591;48.314;11.562;2023-02-15T02:28:41;455.73;;;67.40;;
36585;SDS011;22591;48.314;11.562;2023-02-15T02:31:35;336.77;;;54.70;;
36585;SDS011;22591;48.314;11.562;2023-02-15T02:36:53;370.58;;;54.08;;
36585;SDS011;22591;48.314;11.562;2023-02-15T02:39:33;418.33;;;66.43;;
36585;SDS011;22591;48.314;11.562;2023-02-15T02:42:17;403.00;;;58.50;;
36585;SDS011;22591;48.314;11.562;2023-02-15T02:44:58;378.52;;;58.10;;
36585;SDS011;22591;48.314;11.562;2023-02-15T02:47:30;478.60;;;67.13;;
36585;SDS011;22591;48.314;11.562;2023-02-15T02:50:09;157.60;;;37.67;;
36585;SDS011;22591;48.314;11.562;2023-02-15T02:52:43;186.85;;;41.70;;
36585;SDS011;22591;48.314;11.562;2023-02-15T02:55:12;232.02;;;41.55;;
36585;SDS011;22591;48.314;11.562;2023-02-15T02:57:48;385.20;;;54.60;;
36585;SDS011;22591;48.314;11.562;2023-02-15T03:00:19;401.83;;;60.78;;
36585;SDS011;22591;48.314;11.562;2023-02-15T03:02:47;303.65;;;46.97;;
36585;SDS011;22591;48.314;11.562;2023-02-15T03:05:16;295.17;;;46.78;;
36585;SDS011;22591;48.314;11.562;2023-02-15T03:07:46;406.30;;;56.75;;
36585;SDS011;22591;48.314;11.562;2023-02-15T03:10:15;670.47;;;93.53;;
36585;SDS011;22591;48.314;11.562;2023-02-15T03:12:45;648.10;;;90.22;;
36585;SDS011;22591;48.314;11.562;2023-02-15T03:15:21;413.88;;;53.53;;
36585;SDS011;22591;48.314;11.562;2023-02-15T03:17:53;526.03;;;74.18;;
36585;SDS011;22591;48.314;11.562;2023-02-15T03:20:24;508.92;;;70.30;;
36585;SDS011;22591;48.314;11.562;2023-02-15T03:22:55;526.47;;;67.18;;
36585;SDS011;22591;48.314;11.562;2023-02-15T03:25:27;145.98;;;29.98;;
36585;SDS011;22591;48.314;11.562;2023-02-15T03:28:08;165.75;;;32.67;;
36585;SDS011;22591;48.314;11.562;2023-02-15T03:30:40;342.23;;;54.53;;
36585;SDS011;22591;48.314;11.562;2023-02-15T03:33:10;261.08;;;43.22;;
36585;SDS011;22591;48.314;11.562;2023-02-15T03:35:44;85.38;;;29.02;;
36585;SDS011;22591;48.314;11.562;2023-02-15T03:38:20;407.63;;;63.80;;
36585;SDS011;22591;48.314;11.562;2023-02-15T03:40:48;377.48;;;52.10;;
36585;SDS011;22591;48.314;11.562;2023-02-15T03:43:48;257.23;;;40.85;;
36585;SDS011;22591;48.314;11.562;2023-02-15T03:46:23;247.45;;;42.15;;
36585;SDS011;22591;48.314;11.562;2023-02-15T03:49:01;447.20;;;52.83;;
36585;SDS011;22591;48.314;11.562;2023-02-15T03:51:51;253.18;;;40.20;;
36585;SDS011;22591;48.314;11.562;2023-02-15T03:54:22;139.88;;;30.35;;
36585;SDS011;22591;48.314;11.562;2023-02-15T04:00:24;107.80;;;29.70;;
36585;SDS011;22591;48.314;11.562;2023-02-15T04:03:29;85.80;;;27.85;;
36585;SDS011;22591;48.314;11.562;2023-02-15T04:06:02;184.52;;;36.38;;
36585;SDS011;22591;48.314;11.562;2023-02-15T04:08:28;144.60;;;34.72;;
36585;SDS011;22591;48.314;11.562;2023-02-15T04:11:12;129.13;;;31.42;;
36585;SDS011;22591;48.314;11.562;2023-02-15T04:13:38;180.05;;;35.38;;
36585;SDS011;22591;48.314;11.562;2023-02-15T04:16:04;156.05;;;33.38;;
36585;SDS011;22591;48.314;11.562;2023-02-15T04:18:42;236.77;;;37.35;;
36585;SDS011;22591;48.314;11.562;2023-02-15T04:21:28;90.07;;;26.80;;
36585;SDS011;22591;48.314;11.562;2023-02-15T04:24:14;127.15;;;33.92;;
36585;SDS011;22591;48.314;11.562;2023-02-15T04:26:59;215.80;;;43.60;;
36585;SDS011;22591;48.314;11.562;2023-02-15T04:29:25;220.77;;;43.67;;
36585;SDS011;22591;48.314;11.562;2023-02-15T04:31:51;109.53;;;28.75;;
36585;SDS011;22591;48.314;11.562;2023-02-15T04:34:18;163.50;;;33.55;;
36585;SDS011;22591;48.314;11.562;2023-02-15T04:36:44;138.75;;;36.20;;
36585;SDS011;22591;48.314;11.562;2023-02-15T04:39:12;350.60;;;51.17;;
36585;SDS011;22591;48.314;11.562;2023-02-15T04:41:39;296.75;;;47.45;;
36585;SDS011;22591;48.314;11.562;2023-02-15T04:44:04;321.63;;;52.90;;
36585;SDS011;22591;48.314;11.562;2023-02-15T04:46:30;240.32;;;42.08;;
36585;SDS011;22591;48.314;11.562;2023-02-15T04:48:56;130.13;;;34.30;;
36585;SDS011;22591;48.314;11.562;2023-02-15T04:51:21;425.58;;;57.85;;
36585;SDS011;22591;48.314;11.562;2023-02-15T04:53:47;606.55;;;78.68;;
36585;SDS011;22591;48.314;11.562;2023-02-15T04:56:13;286.55;;;42.92;;
36585;SDS011;22591;48.314;11.562;2023-02-15T04:58:38;359.90;;;51.58;;
36585;SDS011;22591;48.314;11.562;2023-02-15T05:01:08;286.20;;;44.50;;
36585;SDS011;22591;48.314;11.562;2023-02-15T05:03:33;273.35;;;47.08;;
36585;SDS011;22591;48.314;11.562;2023-02-15T05:05:59;138.13;;;32.92;;
36585;SDS011;22591;48.314;11.562;2023-02-15T05:08:25;97.70;;;27.73;;
36585;SDS011;22591;48.314;11.562;2023-02-15T05:10:51;123.03;;;30.00;;
36585;SDS011;22591;48.314;11.562;2023-02-15T05:13:16;175.68;;;37.45;;
36585;SDS011;22591;48.314;11.562;2023-02-15T05:15:46;236.98;;;38.20;;
36585;SDS011;22591;48.314;11.562;2023-02-15T05:18:16;224.35;;;43.30;;
36585;SDS011;22591;48.314;11.562;2023-02-15T05:20:42;358.60;;;54.70;;
36585;SDS011;22591;48.314;11.562;2023-02-15T05:23:08;362.27;;;51.53;;
36585;SDS011;22591;48.314;11.562;2023-02-15T05:25:34;300.75;;;46.03;;
36585;SDS011;22591;48.314;11.562;2023-02-15T05:28:18;72.57;;;26.63;;
36585;SDS011;22591;48.314;11.562;2023-02-15T05:30:47;443.52;;;62.53;;
36585;SDS011;22591;48.314;11.562;2023-02-15T05:33:14;232.75;;;39.53;;
36585;SDS011;22591;48.314;11.562;2023-02-15T05:35:39;216.57;;;39.42;;
36585;SDS011;22591;48.314;11.562;2023-02-15T05:38:05;285.30;;;48.63;;
36585;SDS011;22591;48.314;11.562;2023-02-15T05:40:31;270.33;;;39.67;;
36585;SDS011;22591;48.314;11.562;2023-02-15T05:42:56;290.65;;;42.10;;
36585;SDS011;22591;48.314;11.562;2023-02-15T05:45:22;279.00;;;44.92;;
36585;SDS011;22591;48.314;11.562;2023-02-15T05:47:48;253.90;;;42.25;;
36585;SDS011;22591;48.314;11.562;2023-02-15T05:50:13;201.98;;;37.83;;
36585;SDS011;22591;48.314;11.562;2023-02-15T05:52:39;266.90;;;46.03;;
36585;SDS011;22591;48.314;11.562;2023-02-15T05:55:05;208.75;;;39.13;;
36585;SDS011;22591;48.314;11.562;2023-02-15T05:57:31;392.63;;;56.40;;
36585;SDS011;22591;48.314;11.562;2023-02-15T05:59:57;337.42;;;50.55;;
36585;SDS011;22591;48.314;11.562;2023-02-15T06:02:23;163.60;;;37.88;;
36585;SDS011;22591;48.314;11.562;2023-02-15T06:04:48;210.18;;;39.90;;
36585;SDS011;22591;48.314;11.562;2023-02-15T06:07:14;129.82;;;38.70;;
36585;SDS011;22591;48.314;11.562;2023-02-15T06:09:39;86.68;;;28.10;;
36585;SDS011;22591;48.314;11.562;2023-02-15T06:12:05;86.65;;;31.40;;
36585;SDS011;22591;48.314;11.562;2023-02-15T06:14:30;206.88;;;41.47;;
36585;SDS011;22591;48.314;11.562;2023-02-15T06:16:56;155.55;;;35.20;;
36585;SDS011;22591;48.314;11.562;2023-02-15T06:19:21;223.25;;;42.95;;
36585;SDS011;22591;48.314;11.562;2023-02-15T06:21:47;76.05;;;28.20;;
36585;SDS011;22591;48.314;11.562;2023-02-15T06:24:13;76.90;;;28.25;;
36585;SDS011;22591;48.314;11.562;2023-02-15T06:26:39;58.72;;;28.65;;
36585;SDS011;22591;48.314;11.562;2023-02-15T06:29:04;104.40;;;31.85;;
36585;SDS011;22591;48.314;11.562;2023-02-15T06:31:30;50.58;;;26.55;;
36585;SDS011;22591;48.314;11.562;2023-02-15T06:33:55;42.25;;;24.05;;
36585;SDS011;22591;48.314;11.562;2023-02-15T06:36:26;61.38;;;25.92;;
36585;SDS011;22591;48.314;11.562;2023-02-15T06:38:52;70.07;;;28.20;;
36585;SDS011;22591;48.314;11.562;2023-02-15T06:41:18;37.05;;;23.58;;
36585;SDS011;22591;48.314;11.562;2023-02-15T06:43:43;40.65;;;24.10;;
36585;SDS011;22591;48.314;11.562;2023-02-15T06:46:09;42.30;;;23.67;;
36585;SDS011;22591;48.314;11.562;2023-02-15T06:48:34;34.08;;;21.35;;
36585;SDS011;22591;48.314;11.562;2023-02-15T06:51:00;33.38;;;22.90;;
36585;SDS011;22591;48.314;11.562;2023-02-15T06:53:26;43.53;;;23.55;;
36585;SDS011;22591;48.314;11.562;2023-02-15T06:55:51;35.42;;;23.35;;
36585;SDS011;22591;48.314;11.562;2023-02-15T06:58:17;34.90;;;21.42;;
36585;SDS011;22591;48.314;11.562;2023-02-15T07:00:42;45.72;;;25.45;;
36585;SDS011;22591;48.314;11.562;2023-02-15T07:03:08;39.83;;;22.20;;
36585;SDS011;22591;48.314;11.562;2023-02-15T07:05:34;43.28;;;21.77;;
36585;SDS011;22591;48.314;11.562;2023-02-15T07:08:00;50.22;;;24.55;;
36585;SDS011;22591;48.314;11.562;2023-02-15T07:10:26;63.33;;;23.27;;
36585;SDS011;22591;48.314;11.562;2023-02-15T07:12:52;38.88;;;23.05;;
36585;SDS011;22591;48.314;11.562;2023-02-15T07:15:18;39.97;;;24.90;;
36585;SDS011;22591;48.314;11.562;2023-02-15T07:17:47;34.28;;;22.48;;
36585;SDS011;22591;48.314;11.562;2023-02-15T07:20:15;35.10;;;21.52;;
36585;SDS011;22591;48.314;11.562;2023-02-15T07:22:43;31.23;;;19.08;;
36585;SDS011;22591;48.314;11.562;2023-02-15T07:25:10;42.30;;;22.02;;
36585;SDS011;22591;48.314;11.562;2023-02-15T07:27:36;49.30;;;22.38;;
36585;SDS011;22591;48.314;11.562;2023-02-15T07:30:02;26.60;;;18.15;;
36585;SDS011;22591;48.314;11.562;2023-02-15T07:32:29;28.45;;;19.40;;
36585;SDS011;22591;48.314;11.562;2023-02-15T07:34:56;28.90;;;19.88;;
36585;SDS011;22591;48.314;11.562;2023-02-15T07:37:22;32.38;;;20.13;;
36585;SDS011;22591;48.314;11.562;2023-02-15T07:39:48;40.03;;;23.15;;
36585;SDS011;22591;48.314;11.562;2023-02-15T07:42:13;44.95;;;21.63;;
36585;SDS011;22591;48.314;11.562;2023-02-15T07:44:39;39.95;;;23.23;;
36585;SDS011;22591;48.314;11.562;2023-02-15T07:47:04;36.13;;;23.02;;
36585;SDS011;22591;48.314;11.562;2023-02-15T07:49:30;43.90;;;21.75;;
36585;SDS011;22591;48.314;11.562;2023-02-15T07:51:56;37.67;;;21.15;;
36585;SDS011;22591;48.314;11.562;2023-02-15T07:54:21;34.05;;;20.75;;
36585;SDS011;22591;48.314;11.562;2023-02-15T07:56:47;33.35;;;20.73;;
36585;SDS011;22591;48.314;11.562;2023-02-15T07:59:12;29.08;;;20.73;;
36585;SDS011;22591;48.314;11.562;2023-02-15T08:01:38;34.58;;;21.42;;
36585;SDS011;22591;48.314;11.562;2023-02-15T08:04:04;62.97;;;23.55;;
36585;SDS011;22591;48.314;11.562;2023-02-15T08:06:33;79.82;;;24.83;;
36585;SDS011;22591;48.314;11.562;2023-02-15T08:09:02;55.08;;;25.65;;
36585;SDS011;22591;48.314;11.562;2023-02-15T08:11:30;48.65;;;24.80;;
36585;SDS011;22591;48.314;11.562;2023-02-15T08:14:05;47.13;;;22.30;;
36585;SDS011;22591;48.314;11.562;2023-02-15T08:21:41;67.68;;;21.17;;
36585;SDS011;22591;48.314;11.562;2023-02-15T08:24:09;87.68;;;22.42;;
36585;SDS011;22591;48.314;11.562;2023-02-15T08:26:37;110.38;;;24.92;;
36585;SDS011;22591;48.314;11.562;2023-02-15T08:29:07;77.93;;;23.85;;
36585;SDS011;22591;48.314;11.562;2023-02-15T08:31:33;68.25;;;26.05;;
36585;SDS011;22591;48.314;11.562;2023-02-15T08:33:59;38.65;;;21.58;;
36585;SDS011;22591;48.314;11.562;2023-02-15T08:36:26;55.60;;;22.35;;
36585;SDS011;22591;48.314;11.562;2023-02-15T08:38:53;59.90;;;20.77;;
36585;SDS011;22591;48.314;11.562;2023-02-15T08:43:50;92.00;;;22.08;;
36585;SDS011;22591;48.314;11.562;2023-02-15T08:46:18;147.68;;;25.85;;
36585;SDS011;22591;48.314;11.562;2023-02-15T08:48:44;76.88;;;20.85;;
36585;SDS011;22591;48.314;11.562;2023-02-15T08:51:12;87.22;;;23.08;;
36585;SDS011;22591;48.314;11.562;2023-02-15T08:53:39;109.20;;;23.33;;
36585;SDS011;22591;48.314;11.562;2023-02-15T08:56:07;132.82;;;23.65;;
36585;SDS011;22591;48.314;11.562;2023-02-15T08:58:33;186.45;;;29.08;;
36585;SDS011;22591;48.314;11.562;2023-02-15T09:00:59;123.90;;;20.02;;
36585;SDS011;22591;48.314;11.562;2023-02-15T09:03:27;175.85;;;25.50;;
36585;SDS011;22591;48.314;11.562;2023-02-15T09:05:57;82.45;;;21.08;;
36585;SDS011;22591;48.314;11.562;2023-02-15T09:08:23;109.57;;;21.10;;
36585;SDS011;22591;48.314;11.562;2023-02-15T09:10:49;188.77;;;24.30;;
36585;SDS011;22591;48.314;11.562;2023-02-15T09:13:14;152.82;;;27.20;;
36585;SDS011;22591;48.314;11.562;2023-02-15T09:15:40;95.72;;;24.55;;
36585;SDS011;22591;48.314;11.562;2023-02-15T09:18:05;125.43;;;24.30;;
36585;SDS011;22591;48.314;11.562;2023-02-15T09:20:34;102.05;;;24.30;;
36585;SDS011;22591;48.314;11.562;2023-02-15T09:23:01;100.80;;;21.60;;
36585;SDS011;22591;48.314;11.562;2023-02-15T09:25:27;120.03;;;23.50;;
36585;SDS011;22591;48.314;11.562;2023-02-15T09:27:53;123.38;;;21.95;;
36585;SDS011;22591;48.314;11.562;2023-02-15T09:30:18;120.30;;;23.10;;
36585;SDS011;22591;48.314;11.562;2023-02-15T09:32:44;80.05;;;20.13;;
36585;SDS011;22591;48.314;11.562;2023-02-15T09:35:13;47.63;;;22.13;;
36585;SDS011;22591;48.314;11.562;2023-02-15T09:37:38;77.70;;;23.02;;
36585;SDS011;22591;48.314;11.562;2023-02-15T09:40:04;54.92;;;20.90;;
36585;SDS011;22591;48.314;11.562;2023-02-15T09:48:03;69.57;;;19.67;;
36585;SDS011;22591;48.314;11.562;2023-02-15T09:53:33;120.28;;;22.65;;
36585;SDS011;22591;48.314;11.562;2023-02-15T09:56:36;142.23;;;22.73;;
36585;SDS011;22591;48.314;11.562;2023-02-15T09:59:40;139.85;;;27.70;;
36585;SDS011;22591;48.314;11.562;2023-02-15T10:07:52;56.60;;;18.42;;
36585;SDS011;22591;48.314;11.562;2023-02-15T10:19:54;94.88;;;23.98;;
36585;SDS011;22591;48.314;11.562;2023-02-15T10:23:25;111.05;;;22.02;;
36585;SDS011;22591;48.314;11.562;2023-02-15T10:28:34;69.65;;;18.88;;
36585;SDS011;22591;48.314;11.562;2023-02-15T10:31:27;51.40;;;17.42;;
36585;SDS011;22591;48.314;11.562;2023-02-15T10:36:41;101.40;;;24.30;;
36585;SDS011;22591;48.314;11.562;2023-02-15T10:39:34;53.78;;;18.83;;
36585;SDS011;22591;48.314;11.562;2023-02-15T10:42:40;75.30;;;20.10;;
36585;SDS011;22591;48.314;11.562;2023-02-15T10:47:55;69.30;;;19.45;;
36585;SDS011;22591;48.314;11.562;2023-02-15T10:50:52;42.42;;;19.75;;
36585;SDS011;22591;48.314;11.562;2023-02-15T10:53:31;70.75;;;19.60;;
36585;SDS011;22591;48.314;11.562;2023-02-15T11:01:37;57.08;;;20.65;;
36585;SDS011;22591;48.314;11.562;2023-02-15T11:04:33;164.50;;;25.40;;
36585;SDS011;22591;48.314;11.562;2023-02-15T11:07:08;48.03;;;17.10;;
36585;SDS011;22591;48.314;11.562;2023-02-15T11:09:42;94.85;;;21.85;;
36585;SDS011;22591;48.314;11.562;2023-02-15T11:12:16;131.55;;;23.90;;
36585;SDS011;22591;48.314;11.562;2023-02-15T11:17:49;66.63;;;19.27;;
36585;SDS011;22591;48.314;11.562;2023-02-15T11:20:25;41.15;;;18.95;;
36585;SDS011;22591;48.314;11.562;2023-02-15T11:22:56;97.38;;;21.25;;
36585;SDS011;22591;48.314;11.562;2023-02-15T11:25:25;33.33;;;19.55;;
36585;SDS011;22591;48.314;11.562;2023-02-15T11:27:58;44.50;;;20.08;;
36585;SDS011;22591;48.314;11.562;2023-02-15T11:30:39;95.63;;;23.67;;
36585;SDS011;22591;48.314;11.562;2023-02-15T11:33:13;32.35;;;18.63;;
36585;SDS011;22591;48.314;11.562;2023-02-15T11:36:07;20.73;;;16.58;;
36585;SDS011;22591;48.314;11.562;2023-02-15T11:38:38;43.00;;;20.23;;
36585;SDS011;22591;48.314;11.562;2023-02-15T11:41:12;29.23;;;16.63;;
36585;SDS011;22591;48.314;11.562;2023-02-15T11:43:43;28.40;;;17.05;;
36585;SDS011;22591;48.314;11.562;2023-02-15T11:46:22;24.77;;;17.98;;
36585;SDS011;22591;48.314;11.562;2023-02-15T11:48:48;24.30;;;17.90;;
36585;SDS011;22591;48.314;11.562;2023-02-15T11:51:14;24.45;;;20.08;;
36585;SDS011;22591;48.314;11.562;2023-02-15T11:53:43;23.08;;;18.38;;
36585;SDS011;22591;48.314;11.562;2023-02-15T11:56:16;31.40;;;20.98;;
36585;SDS011;22591;48.314;11.562;2023-02-15T11:58:47;23.30;;;18.00;;
36585;SDS011;22591;48.314;11.562;2023-02-15T12:01:25;19.98;;;17.55;;
36585;SDS011;22591;48.314;11.562;2023-02-15T12:03:59;20.75;;;18.65;;
36585;SDS011;22591;48.314;11.562;2023-02-15T12:06:28;27.40;;;19.08;;
36585;SDS011;22591;48.314;11.562;2023-02-15T12:09:20;20.05;;;17.95;;
36585;SDS011;22591;48.314;11.562;2023-02-15T12:12:19;22.98;;;19.95;;
36585;SDS011;22591;48.314;11.562;2023-02-15T12:14:54;24.13;;;18.77;;
36585;SDS011;22591;48.314;11.562;2023-02-15T12:17:22;26.45;;;21.27;;
36585;SDS011;22591;48.314;11.562;2023-02-15T12:19:51;20.60;;;18.35;;
36585;SDS011;22591;48.314;11.562;2023-02-15T12:22:24;23.52;;;19.42;;
36585;SDS011;22591;48.314;11.562;2023-02-15T12:24:54;25.83;;;20.42;;
36585;SDS011;22591;48.314;11.562;2023-02-15T12:27:34;23.45;;;20.83;;
36585;SDS011;22591;48.314;11.562;2023-02-15T12:30:06;25.23;;;20.83;;
36585;SDS011;22591;48.314;11.562;2023-02-15T12:35:54;28.17;;;21.90;;
36585;SDS011;22591;48.314;11.562;2023-02-15T12:38:25;26.73;;;21.13;;
36585;SDS011;22591;48.314;11.562;2023-02-15T12:40:59;26.83;;;20.35;;
36585;SDS011;22591;48.314;11.562;2023-02-15T12:43:33;24.15;;;20.17;;
36585;SDS011;22591;48.314;11.562;2023-02-15T12:51:49;22.88;;;20.00;;
36585;SDS011;22591;48.314;11.562;2023-02-15T12:56:46;22.65;;;20.02;;
36585;SDS011;22591;48.314;11.562;2023-02-15T12:59:12;21.08;;;18.60;;
36585;SDS011;22591;48.314;11.562;2023-02-15T13:01:40;24.05;;;21.40;;
36585;SDS011;22591;48.314;11.562;2023-02-15T13:04:24;29.63;;;23.17;;
36585;SDS011;22591;48.314;11.562;2023-02-15T13:06:52;26.27;;;21.42;;
36585;SDS011;22591;48.314;11.562;2023-02-15T13:11:56;29.15;;;21.98;;
36585;SDS011;22591;48.314;11.562;2023-02-15T13:14:28;25.15;;;20.77;;
36585;SDS011;22591;48.314;11.562;2023-02-15T13:16:57;26.65;;;21.88;;
36585;SDS011;22591;48.314;11.562;2023-02-15T13:19:40;29.15;;;21.98;;
36585;SDS011;22591;48.314;11.562;2023-02-15T13:22:15;26.15;;;21.10;;
36585;SDS011;22591;48.314;11.562;2023-02-15T13:24:55;26.33;;;21.95;;
36585;SDS011;22591;48.314;11.562;2023-02-15T13:27:24;29.67;;;21.52;;
36585;SDS011;22591;48.314;11.562;2023-02-15T13:29:57;29.75;;;22.67;;
36585;SDS011;22591;48.314;11.562;2023-02-15T13:32:31;23.37;;;20.83;;
36585;SDS011;22591;48.314;11.562;2023-02-15T13:35:02;27.30;;;21.85;;
36585;SDS011;22591;48.314;11.562;2023-02-15T13:48:10;24.23;;;21.27;;
36585;SDS011;22591;48.314;11.562;2023-02-15T13:50:46;23.40;;;20.20;;
36585;SDS011;22591;48.314;11.562;2023-02-15T13:55:53;25.75;;;21.63;;
36585;SDS011;22591;48.314;11.562;2023-02-15T13:58:27;29.17;;;23.02;;
36585;SDS011;22591;48.314;11.562;2023-02-15T14:20:36;31.83;;;23.50;;
36585;SDS011;22591;48.314;11.562;2023-02-15T14:26:00;31.20;;;23.85;;
36585;SDS011;22591;48.314;11.562;2023-02-15T14:28:49;32.60;;;22.98;;
36585;SDS011;22591;48.314;11.562;2023-02-15T14:31:25;33.25;;;25.73;;
36585;SDS011;22591;48.314;11.562;2023-02-15T14:33:59;36.17;;;26.73;;
36585;SDS011;22591;48.314;11.562;2023-02-15T14:36:24;29.73;;;23.75;;
36585;SDS011;22591;48.314;11.562;2023-02-15T14:42:03;29.95;;;24.67;;
36585;SDS011;22591;48.314;11.562;2023-02-15T14:44:39;30.25;;;23.27;;
36585;SDS011;22591;48.314;11.562;2023-02-15T14:49:50;33.10;;;25.73;;
36585;SDS011;22591;48.314;11.562;2023-02-15T14:52:15;30.27;;;24.58;;
36585;SDS011;22591;48.314;11.562;2023-02-15T15:02:16;32.83;;;25.35;;
36585;SDS011;22591;48.314;11.562;2023-02-15T15:07:28;28.88;;;23.80;;
36585;SDS011;22591;48.314;11.562;2023-02-15T15:10:03;35.92;;;23.38;;
36585;SDS011;22591;48.314;11.562;2023-02-15T15:12:51;31.92;;;24.70;;
36585;SDS011;22591;48.314;11.562;2023-02-15T15:20:48;43.85;;;31.27;;
36585;SDS011;22591;48.314;11.562;2023-02-15T15:25:47;42.78;;;30.55;;
36585;SDS011;22591;48.314;11.562;2023-02-15T15:30:58;95.28;;;35.88;;
36585;SDS011;22591;48.314;11.562;2023-02-15T15:36:55;120.70;;;40.33;;
36585;SDS011;22591;48.314;11.562;2023-02-15T15:42:13;265.50;;;47.13;;
36585;SDS011;22591;48.314;11.562;2023-02-15T15:45:23;253.75;;;49.22;;
36585;SDS011;22591;48.314;11.562;2023-02-15T15:50:44;94.60;;;45.45;;
36585;SDS011;22591;48.314;11.562;2023-02-15T15:53:20;207.45;;;48.67;;
36585;SDS011;22591;48.314;11.562;2023-02-15T15:55:48;155.73;;;47.88;;
36585;SDS011;22591;48.314;11.562;2023-02-15T15:58:19;130.45;;;45.72;;
36585;SDS011;22591;48.314;11.562;2023-02-15T16:03:53;252.30;;;58.28;;
36585;SDS011;22591;48.314;11.562;2023-02-15T16:06:37;115.25;;;49.50;;
36585;SDS011;22591;48.314;11.562;2023-02-15T16:09:20;93.60;;;48.00;;
36585;SDS011;22591;48.314;11.562;2023-02-15T16:11:49;133.75;;;51.70;;
36585;SDS011;22591;48.314;11.562;2023-02-15T16:14:21;183.20;;;47.25;;
36585;SDS011;22591;48.314;11.562;2023-02-15T16:16:54;306.25;;;57.78;;
36585;SDS011;22591;48.314;11.562;2023-02-15T16:19:23;211.48;;;51.47;;
36585;SDS011;22591;48.314;11.562;2023-02-15T16:21:52;331.40;;;55.10;;
36585;SDS011;22591;48.314;11.562;2023-02-15T16:24:21;285.92;;;52.88;;
36585;SDS011;22591;48.314;11.562;2023-02-15T16:27:13;175.75;;;46.53;;
36585;SDS011;22591;48.314;11.562;2023-02-15T16:29:44;294.38;;;49.30;;
36585;SDS011;22591;48.314;11.562;2023-02-15T16:37:33;358.63;;;56.65;;
36585;SDS011;22591;48.314;11.562;2023-02-15T16:39:59;137.98;;;42.45;;
36585;SDS011;22591;48.314;11.562;2023-02-15T16:42:25;270.88;;;48.22;;
36585;SDS011;22591;48.314;11.562;2023-02-15T16:44:54;188.07;;;49.35;;
36585;SDS011;22591;48.314;11.562;2023-02-15T16:47:22;218.05;;;51.97;;
36585;SDS011;22591;48.314;11.562;2023-02-15T16:49:48;268.05;;;50.95;;
36585;SDS011;22591;48.314;11.562;2023-02-15T16:52:20;237.52;;;49.80;;
36585;SDS011;22591;48.314;11.562;2023-02-15T16:57:18;354.50;;;51.60;;
36585;SDS011;22591;48.314;11.562;2023-02-15T16:59:47;379.13;;;60.13;;
36585;SDS011;22591;48.314;11.562;2023-02-15T17:02:18;260.90;;;52.45;;